Terminal Aerodrome Forecast
Issued by NWS Billings, MT

Home | Current Version | Previous Version | Text Only | Print | Product List | Glossary On
Versions: 1 2 3 4 5 6 7 8 9 10 11 12 13 14 15 16 17 18 19 20 21 22 23 24 25 26 27 28 29 30 31
000
FTUS45 KBYZ 101124
TAFBIL
TAF
KBIL 101124Z 1012/1112 33006KT P6SM -SHRA VCTS SCT060CB BKN100
     FM101330 29012KT P6SM VCSH BKN100
     FM101630 33010KT P6SM SCT120
     FM110200 04009KT P6SM SCT120=

USA.gov is the U.S. government's official web portal to all federal, state and local government web resources and services.